createdAt,value
2023-04-03T00:00:00.910Z,100.00
2023-04-03T00:02:49.930Z,100.00
2023-04-03T00:05:38.923Z,100.00
2023-04-03T00:08:27.918Z,100.00
2023-04-03T00:11:17.288Z,100.00
2023-04-03T00:14:07.653Z,100.00
2023-04-03T00:16:56.576Z,100.00
2023-04-03T00:19:45.868Z,100.00
2023-04-03T00:22:34.824Z,100.00
2023-04-03T00:25:24.466Z,100.00
2023-04-03T00:28:13.693Z,100.00
2023-04-03T00:31:04.309Z,100.00
2023-04-03T00:33:53.190Z,100.00
2023-04-03T00:36:42.308Z,100.00
2023-04-03T00:39:31.396Z,100.00
2023-04-03T00:42:20.297Z,100.00
2023-04-03T00:45:35.882Z,100.00
2023-04-03T00:48:33.269Z,100.00
2023-04-03T00:51:27.148Z,100.00
2023-04-03T00:54:16.505Z,100.00
2023-04-03T00:57:09.083Z,100.00
2023-04-03T01:00:07.154Z,100.00
2023-04-03T01:02:56.109Z,100.00
2023-04-03T01:05:46.655Z,100.00
2023-04-03T01:08:36.466Z,100.00
2023-04-03T01:11:25.832Z,100.00
2023-04-03T01:14:15.073Z,100.00
2023-04-03T01:17:03.967Z,100.00
2023-04-03T01:20:17.035Z,100.00
2023-04-03T01:23:27.425Z,100.00
2023-04-03T01:26:16.854Z,100.00
2023-04-03T01:29:06.453Z,100.00
2023-04-03T01:31:59.001Z,100.00
2023-04-03T01:34:48.055Z,100.00
2023-04-03T01:37:37.146Z,100.00
2023-04-03T01:40:26.128Z,100.00
2023-04-03T01:43:15.373Z,100.00
2023-04-03T01:46:04.498Z,100.00
2023-04-03T01:48:55.017Z,100.00
2023-04-03T01:51:43.964Z,100.00
2023-04-03T01:54:32.814Z,100.00
2023-04-03T01:57:21.716Z,100.00
2023-04-03T02:00:13.008Z,100.00
2023-04-03T02:03:01.871Z,100.00
2023-04-03T02:05:52.641Z,100.00
2023-04-03T02:08:42.699Z,100.00
2023-04-03T02:11:31.764Z,100.00
2023-04-03T02:14:22.840Z,100.00
2023-04-03T02:17:11.920Z,100.00
2023-04-03T02:20:00.802Z,100.00
2023-04-03T02:22:51.246Z,100.00
2023-04-03T02:25:40.560Z,100.00
2023-04-03T02:28:29.385Z,100.00
2023-04-03T02:31:20.415Z,100.00
2023-04-03T02:34:09.990Z,100.00
2023-04-03T02:36:59.659Z,100.00
2023-04-03T02:39:50.276Z,100.00
2023-04-03T02:42:39.364Z,100.00
2023-04-03T02:45:28.659Z,100.00
2023-04-03T02:48:17.814Z,100.00
2023-04-03T02:51:07.446Z,100.00
2023-04-03T02:53:56.518Z,100.00
2023-04-03T02:56:51.081Z,100.00
2023-04-03T02:59:41.494Z,100.00
2023-04-03T03:02:31.479Z,100.00
2023-04-03T03:05:20.760Z,100.00
2023-04-03T03:08:09.734Z,100.00
2023-04-03T03:10:58.779Z,100.00
2023-04-03T03:13:49.384Z,100.00
2023-04-03T03:16:38.346Z,100.00
2023-04-03T03:19:27.196Z,100.00
2023-04-03T03:22:16.111Z,100.00
2023-04-03T03:25:09.106Z,100.00
2023-04-03T03:27:59.247Z,100.00
2023-04-03T03:30:49.774Z,100.00
2023-04-03T03:33:40.081Z,100.00
2023-04-03T03:36:28.936Z,100.00
2023-04-03T03:39:17.767Z,100.00
2023-04-03T03:42:07.951Z,100.00
2023-04-03T03:44:56.929Z,100.00
2023-04-03T03:47:47.376Z,100.00
2023-04-03T03:50:36.778Z,100.00
2023-04-03T03:53:25.724Z,100.00
2023-04-03T03:56:18.434Z,100.00
2023-04-03T03:59:09.033Z,100.00
2023-04-03T04:01:58.118Z,100.00
2023-04-03T04:04:48.498Z,100.00
2023-04-03T04:07:37.695Z,100.00
2023-04-03T04:10:26.929Z,100.00
2023-04-03T04:13:16.468Z,100.00
2023-04-03T04:16:06.226Z,100.00
2023-04-03T04:18:56.179Z,100.00
2023-04-03T04:21:47.711Z,100.00
2023-04-03T04:24:38.554Z,100.00
2023-04-03T04:27:29.038Z,100.00
2023-04-03T04:30:18.792Z,100.00
2023-04-03T04:33:11.062Z,100.00
2023-04-03T04:36:01.036Z,100.00
2023-04-03T04:38:53.720Z,100.00
2023-04-03T04:41:44.501Z,100.00
2023-04-03T04:44:33.673Z,100.00
2023-04-03T04:47:22.857Z,100.00
2023-04-03T04:50:13.917Z,100.00
2023-04-03T04:53:03.085Z,100.00
2023-04-03T04:55:53.904Z,100.00
2023-04-03T04:58:42.870Z,100.00
2023-04-03T05:01:31.903Z,100.00
2023-04-03T05:04:29.648Z,100.00
2023-04-03T05:07:27.009Z,100.00
2023-04-03T05:10:16.366Z,100.00
2023-04-03T05:13:06.887Z,100.00
2023-04-03T05:15:56.009Z,100.00
2023-04-03T05:18:45.453Z,100.00
2023-04-03T05:21:40.179Z,100.00
2023-04-03T05:24:34.120Z,100.00
2023-04-03T05:27:24.966Z,100.00
2023-04-03T05:30:19.136Z,100.00
2023-04-03T05:33:09.875Z,100.00
2023-04-03T05:36:06.903Z,100.00
2023-04-03T05:38:59.962Z,100.00
2023-04-03T05:41:49.078Z,100.00
2023-04-03T05:44:37.950Z,100.00
2023-04-03T05:47:28.443Z,100.00
2023-04-03T05:50:17.977Z,100.00
2023-04-03T05:53:07.617Z,100.00
2023-04-03T05:55:56.684Z,100.00
2023-04-03T05:58:47.230Z,100.00
2023-04-03T06:01:36.514Z,100.00
2023-04-03T06:04:27.178Z,100.00
2023-04-03T06:07:20.503Z,100.00
2023-04-03T06:10:12.952Z,100.00
2023-04-03T06:13:02.877Z,100.00
2023-04-03T06:15:51.846Z,100.00
2023-04-03T06:18:40.802Z,100.00
2023-04-03T06:21:31.208Z,100.00
2023-04-03T06:24:22.735Z,100.00
2023-04-03T06:27:13.318Z,100.00
2023-04-03T06:30:02.409Z,100.00
2023-04-03T06:32:51.423Z,100.00
2023-04-03T06:35:40.436Z,100.00
2023-04-03T06:41:19.934Z,100.00
2023-04-03T06:44:11.918Z,100.00
2023-04-03T06:47:00.863Z,100.00
2023-04-03T06:49:49.768Z,100.00
2023-04-03T06:52:39.237Z,100.00
2023-04-03T06:55:29.558Z,100.00
2023-04-03T06:58:21.759Z,100.00
2023-04-03T07:01:13.122Z,100.00
2023-04-03T07:04:02.168Z,100.00
2023-04-03T07:06:51.548Z,100.00
2023-04-03T07:09:40.457Z,100.00
2023-04-03T07:12:30.760Z,100.00
2023-04-03T07:15:20.464Z,100.00
2023-04-03T07:18:09.626Z,100.00
2023-04-03T07:20:58.738Z,100.00
2023-04-03T07:26:42.126Z,100.00
2023-04-03T07:29:32.474Z,100.00
2023-04-03T07:32:21.521Z,100.00
2023-04-03T07:35:11.004Z,100.00
2023-04-03T07:37:59.874Z,100.00
2023-04-03T07:40:50.646Z,100.00
2023-04-03T07:43:39.565Z,100.00
2023-04-03T07:46:30.077Z,100.00
2023-04-03T07:49:20.047Z,100.00
2023-04-03T07:52:10.783Z,100.00
2023-04-03T07:54:59.641Z,100.00
2023-04-03T07:57:48.501Z,100.00
2023-04-03T08:00:37.354Z,100.00
2023-04-03T08:03:27.847Z,100.00
2023-04-03T08:06:20.038Z,100.00
2023-04-03T08:09:12.673Z,100.00
2023-04-03T08:12:02.071Z,100.00
2023-04-03T08:14:51.111Z,100.00
2023-04-03T08:17:40.329Z,100.00
2023-04-03T08:20:31.302Z,100.00
2023-04-03T08:23:20.988Z,100.00
2023-04-03T08:26:12.662Z,100.00
2023-04-03T08:29:01.930Z,100.00
2023-04-03T08:31:51.798Z,100.00
2023-04-03T08:34:40.798Z,100.00
2023-04-03T08:37:31.266Z,100.00
2023-04-03T08:40:20.429Z,100.00
2023-04-03T08:43:38.471Z,100.00
2023-04-03T08:46:43.415Z,100.00
2023-04-03T08:49:37.806Z,100.00
2023-04-03T08:52:38.341Z,100.00
2023-04-03T08:55:33.771Z,100.00
2023-04-03T08:58:26.696Z,100.00
2023-04-03T09:01:23.351Z,100.00
2023-04-03T09:04:15.901Z,100.00
2023-04-03T09:07:21.061Z,100.00
2023-04-03T09:10:15.263Z,100.00
2023-04-03T09:13:13.286Z,100.00
2023-04-03T09:16:08.415Z,100.00
2023-04-03T09:19:15.773Z,100.00
2023-04-03T09:22:19.458Z,100.00
2023-04-03T09:25:17.801Z,100.00
2023-04-03T09:28:10.741Z,100.00
2023-04-03T09:31:02.580Z,100.00
2023-04-03T09:33:57.526Z,100.00
2023-04-03T09:36:49.889Z,100.00
2023-04-03T09:39:54.509Z,95.80
2023-04-03T09:42:48.924Z,100.00
2023-04-03T09:45:41.621Z,99.80
2023-04-03T09:48:30.512Z,100.00
2023-04-03T09:51:19.360Z,100.00
2023-04-03T09:54:34.398Z,100.00
2023-04-03T09:57:23.354Z,100.00
2023-04-03T10:00:26.319Z,100.00
2023-04-03T10:03:32.804Z,98.52
2023-04-03T10:06:26.057Z,100.00
2023-04-03T10:09:23.650Z,99.85
2023-04-03T10:12:15.539Z,95.18
2023-04-03T10:15:05.980Z,76.01
2023-04-03T10:18:14.361Z,73.38
2023-04-03T10:21:27.476Z,84.23
2023-04-03T10:24:26.229Z,85.91
2023-04-03T10:27:23.570Z,86.06
2023-04-03T10:30:31.750Z,82.30
2023-04-03T10:33:41.803Z,86.21
2023-04-03T10:36:45.469Z,82.63
2023-04-03T10:39:45.746Z,78.17
2023-04-03T10:42:48.242Z,73.83
2023-04-03T10:45:54.978Z,71.56
2023-04-03T10:49:03.987Z,75.79
2023-04-03T10:52:06.057Z,67.82
2023-04-03T10:55:09.794Z,68.47
2023-04-03T10:58:01.448Z,72.04
2023-04-03T11:00:55.973Z,68.68
2023-04-03T11:03:53.815Z,63.20
2023-04-03T11:06:50.738Z,73.38
2023-04-03T11:09:46.007Z,66.52
2023-04-03T11:12:47.058Z,59.67
2023-04-03T11:15:37.591Z,62.84
2023-04-03T11:18:37.528Z,63.25
2023-04-03T11:21:35.751Z,66.87
2023-04-03T11:24:29.625Z,66.17
2023-04-03T11:27:24.644Z,68.09
2023-04-03T11:30:24.079Z,68.20
2023-04-03T11:33:35.075Z,62.48
2023-04-03T11:36:33.055Z,59.77
2023-04-03T11:39:29.492Z,61.38
2023-04-03T11:42:28.943Z,54.44
2023-04-03T11:45:40.305Z,53.80
2023-04-03T11:48:51.978Z,55.12
2023-04-03T11:51:45.824Z,58.52
2023-04-03T11:54:52.796Z,59.19
2023-04-03T11:58:04.492Z,54.79
2023-04-03T12:01:12.719Z,56.53
2023-04-03T12:04:11.902Z,61.21
2023-04-03T12:07:21.239Z,52.62
2023-04-03T12:10:31.698Z,57.02
2023-04-03T12:13:21.743Z,57.22
2023-04-03T12:16:24.231Z,54.79
2023-04-03T12:22:31.135Z,53.63
2023-04-03T12:25:51.316Z,50.18
2023-04-03T12:28:43.173Z,54.93
2023-04-03T12:31:48.148Z,53.06
2023-04-03T12:35:16.295Z,49.19
2023-04-03T12:38:41.052Z,52.65
2023-04-03T12:41:40.770Z,53.56
2023-04-03T12:44:50.390Z,54.15
2023-04-03T12:47:41.078Z,52.91
2023-04-03T12:50:33.929Z,50.63
2023-04-03T12:53:28.084Z,53.61
2023-04-03T12:56:27.845Z,57.08
2023-04-03T12:59:21.049Z,56.25
2023-04-03T13:02:25.465Z,60.70
2023-04-03T13:05:20.294Z,60.22
2023-04-03T13:08:16.855Z,61.09
2023-04-03T13:11:13.618Z,63.42
2023-04-03T13:14:06.147Z,55.27
2023-04-03T13:16:57.572Z,52.42
2023-04-03T13:19:48.008Z,53.07
2023-04-03T13:22:44.731Z,62.18
2023-04-03T13:25:38.144Z,54.73
2023-04-03T13:28:29.186Z,50.86
2023-04-03T13:31:29.217Z,49.25
2023-04-03T13:34:22.479Z,46.10
2023-04-03T13:37:25.395Z,50.33
2023-04-03T13:40:15.369Z,50.61
2023-04-03T13:43:19.154Z,52.36
2023-04-03T13:46:28.267Z,56.87
2023-04-03T13:49:23.241Z,49.59
2023-04-03T13:52:29.781Z,50.55
2023-04-03T13:55:27.194Z,53.61
2023-04-03T13:58:26.526Z,54.16
2023-04-03T14:01:23.549Z,53.13
2023-04-03T14:04:19.360Z,55.05
2023-04-03T14:07:08.416Z,51.61
2023-04-03T14:09:57.853Z,51.92
2023-04-03T14:12:47.230Z,54.04
2023-04-03T14:15:36.351Z,51.38
2023-04-03T14:18:26.699Z,50.09
2023-04-03T14:21:19.379Z,53.28
2023-04-03T14:24:08.449Z,54.07
2023-04-03T14:26:57.692Z,55.70
2023-04-03T14:29:47.736Z,55.29
2023-04-03T14:32:36.960Z,53.30
2023-04-03T14:35:28.189Z,55.54
2023-04-03T14:38:27.077Z,58.34
2023-04-03T14:41:20.235Z,57.38
2023-04-03T14:44:09.467Z,56.50
2023-04-03T14:46:58.487Z,58.16
2023-04-03T14:49:47.487Z,57.21
2023-04-03T14:52:41.193Z,59.62
2023-04-03T14:55:32.897Z,57.76
2023-04-03T14:58:23.475Z,59.42
2023-04-03T15:01:15.147Z,59.48
2023-04-03T15:04:07.454Z,56.39
2023-04-03T15:06:56.488Z,58.32
2023-04-03T15:09:46.876Z,58.09
2023-04-03T15:12:35.726Z,57.90
2023-04-03T15:15:26.488Z,56.39
2023-04-03T15:18:22.265Z,56.50
2023-04-03T15:21:11.306Z,57.93
2023-04-03T15:24:02.169Z,60.10
2023-04-03T15:26:52.475Z,60.56
2023-04-03T15:29:43.989Z,59.51
2023-04-03T15:32:34.859Z,58.36
2023-04-03T15:35:24.488Z,56.73
2023-04-03T15:38:13.462Z,57.15
2023-04-03T15:41:02.872Z,58.02
2023-04-03T15:43:53.318Z,61.89
2023-04-03T15:46:42.623Z,61.52
2023-04-03T15:49:32.346Z,61.20
2023-04-03T15:52:21.371Z,59.15
2023-04-03T15:55:11.300Z,58.96
2023-04-03T15:58:01.009Z,60.62
2023-04-03T16:00:51.281Z,59.76
2023-04-03T16:03:46.295Z,61.85
2023-04-03T16:06:35.985Z,65.77
2023-04-03T16:09:25.045Z,67.71
2023-04-03T16:12:13.871Z,70.10
2023-04-03T16:15:02.781Z,67.35
2023-04-03T16:17:54.733Z,67.78
2023-04-03T16:20:44.889Z,67.40
2023-04-03T16:23:33.914Z,69.54
2023-04-03T16:26:22.753Z,71.71
2023-04-03T16:29:11.749Z,74.89
2023-04-03T16:32:01.406Z,75.21
2023-04-03T16:34:51.850Z,76.43
2023-04-03T16:37:41.763Z,75.04
2023-04-03T16:40:31.091Z,76.78
2023-04-03T16:43:19.947Z,77.87
2023-04-03T16:46:08.786Z,81.08
2023-04-03T16:48:57.681Z,81.55
2023-04-03T16:51:47.825Z,83.74
2023-04-03T16:54:36.615Z,85.70
2023-04-03T16:57:26.018Z,87.26
2023-04-03T17:00:16.778Z,88.66
2023-04-03T17:03:06.107Z,86.27
2023-04-03T17:05:54.903Z,85.91
2023-04-03T17:08:45.246Z,86.25
2023-04-03T17:11:49.377Z,88.89
2023-04-03T17:14:38.411Z,90.95
2023-04-03T17:17:28.183Z,88.55
2023-04-03T17:20:17.659Z,91.02
2023-04-03T17:23:07.476Z,94.42
2023-04-03T17:25:58.042Z,97.82
2023-04-03T17:28:46.935Z,100.00
2023-04-03T17:31:36.233Z,100.00
2023-04-03T17:34:25.720Z,99.30
2023-04-03T17:37:14.706Z,100.00
2023-04-03T17:40:03.693Z,100.00
2023-04-03T17:42:53.860Z,100.00
2023-04-03T17:45:42.703Z,100.00
2023-04-03T17:48:32.253Z,100.00
2023-04-03T17:51:25.257Z,100.00
2023-04-03T17:54:14.202Z,100.00
2023-04-03T17:57:04.607Z,100.00
2023-04-03T17:59:55.130Z,100.00
2023-04-03T18:02:44.440Z,100.00
2023-04-03T18:05:33.675Z,100.00
2023-04-03T18:08:23.421Z,100.00
2023-04-03T18:11:13.206Z,100.00
2023-04-03T18:14:04.026Z,100.00
2023-04-03T18:16:54.329Z,100.00
2023-04-03T18:19:43.296Z,100.00
2023-04-03T18:22:32.783Z,100.00
2023-04-03T18:25:21.808Z,100.00
2023-04-03T18:28:11.461Z,100.00
2023-04-03T18:31:02.657Z,100.00
2023-04-03T18:33:54.849Z,100.00
2023-04-03T18:36:43.749Z,100.00
2023-04-03T18:39:32.775Z,100.00
2023-04-03T18:42:26.257Z,100.00
2023-04-03T18:45:22.539Z,100.00
2023-04-03T18:48:11.584Z,100.00
2023-04-03T18:51:02.139Z,100.00
2023-04-03T18:53:51.020Z,100.00
2023-04-03T18:56:39.990Z,100.00
2023-04-03T18:59:28.889Z,100.00
2023-04-03T19:02:19.174Z,100.00
2023-04-03T19:05:10.814Z,100.00
2023-04-03T19:08:01.111Z,100.00
2023-04-03T19:10:49.988Z,100.00
2023-04-03T19:13:46.841Z,100.00
2023-04-03T19:16:46.812Z,100.00
2023-04-03T19:19:35.726Z,100.00
2023-04-03T19:22:24.851Z,100.00
2023-04-03T19:25:15.406Z,100.00
2023-04-03T19:28:04.246Z,100.00
2023-04-03T19:30:53.378Z,100.00
2023-04-03T19:33:43.509Z,100.00
2023-04-03T19:36:32.491Z,100.00
2023-04-03T19:39:21.466Z,100.00
2023-04-03T19:42:11.965Z,100.00
2023-04-03T19:45:02.112Z,100.00
2023-04-03T19:47:52.751Z,100.00
2023-04-03T19:50:42.357Z,100.00
2023-04-03T19:53:31.249Z,100.00
2023-04-03T19:56:21.414Z,100.00
2023-04-03T19:59:11.698Z,100.00
2023-04-03T20:02:00.556Z,100.00
2023-04-03T20:04:49.800Z,100.00
2023-04-03T20:07:38.674Z,100.00
2023-04-03T20:10:28.224Z,100.00
2023-04-03T20:13:17.104Z,100.00
2023-04-03T20:16:09.360Z,100.00
2023-04-03T20:18:59.234Z,100.00
2023-04-03T20:21:50.197Z,100.00
2023-04-03T20:24:39.100Z,100.00
2023-04-03T20:27:28.907Z,100.00
2023-04-03T20:30:17.865Z,100.00
2023-04-03T20:33:08.161Z,100.00
2023-04-03T20:35:58.955Z,100.00
2023-04-03T20:38:48.965Z,100.00
2023-04-03T20:41:38.437Z,100.00
2023-04-03T20:44:28.070Z,100.00
2023-04-03T20:47:17.526Z,100.00
2023-04-03T20:50:12.253Z,100.00
2023-04-03T20:53:03.422Z,100.00
2023-04-03T20:56:00.404Z,100.00
2023-04-03T20:58:49.976Z,100.00
2023-04-03T21:01:39.584Z,100.00
2023-04-03T21:04:35.208Z,100.00
2023-04-03T21:08:20.412Z,100.00
2023-04-03T21:12:05.731Z,100.00
2023-04-03T21:15:47.224Z,100.00
2023-04-03T21:19:10.094Z,100.00
2023-04-03T21:22:01.457Z,100.00
2023-04-03T21:24:50.271Z,100.00
2023-04-03T21:27:39.100Z,100.00
2023-04-03T21:30:27.915Z,100.00
2023-04-03T21:33:16.745Z,100.00
2023-04-03T21:36:07.968Z,100.00
2023-04-03T21:38:59.192Z,100.00
2023-04-03T21:41:48.172Z,100.00
2023-04-03T21:44:37.088Z,100.00
2023-04-03T21:47:26.828Z,100.00
2023-04-03T21:50:16.115Z,100.00
2023-04-03T21:53:07.248Z,100.00
2023-04-03T21:55:57.327Z,100.00
2023-04-03T21:58:46.315Z,100.00
2023-04-03T22:01:35.288Z,100.00
2023-04-03T22:04:24.621Z,100.00
2023-04-03T22:07:13.531Z,100.00
2023-04-03T22:10:03.940Z,100.00
2023-04-03T22:12:52.878Z,100.00
2023-04-03T22:15:43.999Z,100.00
2023-04-03T22:18:33.725Z,100.00
2023-04-03T22:21:23.068Z,100.00
2023-04-03T22:24:12.041Z,100.00
2023-04-03T22:27:02.605Z,100.00
2023-04-03T22:29:51.391Z,100.00
2023-04-03T22:32:40.972Z,100.00
2023-04-03T22:35:29.903Z,100.00
2023-04-03T22:38:19.068Z,100.00
2023-04-03T22:41:08.825Z,100.00
2023-04-03T22:43:59.833Z,100.00
2023-04-03T22:46:49.078Z,100.00
2023-04-03T22:49:38.370Z,100.00
2023-04-03T22:52:29.232Z,100.00
2023-04-03T22:55:20.921Z,100.00
2023-04-03T22:58:09.782Z,100.00
2023-04-03T23:01:08.004Z,100.00
2023-04-03T23:03:57.116Z,100.00
2023-04-03T23:06:46.075Z,100.00
2023-04-03T23:09:34.915Z,100.00
2023-04-03T23:12:23.854Z,100.00
2023-04-03T23:15:14.522Z,100.00
2023-04-03T23:18:04.825Z,100.00
2023-04-03T23:20:55.079Z,100.00
2023-04-03T23:23:44.123Z,100.00
2023-04-03T23:26:32.912Z,100.00
2023-04-03T23:29:22.121Z,100.00
2023-04-03T23:32:11.310Z,100.00
2023-04-03T23:35:01.497Z,100.00
2023-04-03T23:37:50.353Z,100.00
2023-04-03T23:40:39.520Z,100.00
2023-04-03T23:43:28.841Z,100.00
2023-04-03T23:46:18.164Z,100.00
2023-04-03T23:49:07.338Z,100.00
2023-04-03T23:51:57.677Z,100.00
2023-04-03T23:54:46.638Z,100.00
2023-04-03T23:57:35.695Z,100.00
